sensor_id;sensor_type;location;lat;lon;timestamp;temperature;humidity
55642;DHT22;41509;53.108;6.100;2022-12-10T00:00:36;-0.20;99.90
55642;DHT22;41509;53.108;6.100;2022-12-10T00:03:01;-0.20;99.90
55642;DHT22;41509;53.108;6.100;2022-12-10T00:05:27;-0.20;99.90
55642;DHT22;41509;53.108;6.100;2022-12-10T00:07:53;-0.20;99.90
55642;DHT22;41509;53.108;6.100;2022-12-10T00:10:18;-0.20;99.90
55642;DHT22;41509;53.108;6.100;2022-12-10T00:12:44;-0.20;99.90
55642;DHT22;41509;53.108;6.100;2022-12-10T00:15:10;-0.20;99.90
55642;DHT22;41509;53.108;6.100;2022-12-10T00:17:36;-0.30;99.90
55642;DHT22;41509;53.108;6.100;2022-12-10T00:20:02;-0.20;99.90
55642;DHT22;41509;53.108;6.100;2022-12-10T00:22:28;-0.30;99.90
55642;DHT22;41509;53.108;6.100;2022-12-10T00:24:53;-0.30;99.90
55642;DHT22;41509;53.108;6.100;2022-12-10T00:27:19;-0.30;99.90
55642;DHT22;41509;53.108;6.100;2022-12-10T00:29:45;-0.30;99.90
55642;DHT22;41509;53.108;6.100;2022-12-10T00:32:10;-0.20;99.90
55642;DHT22;41509;53.108;6.100;2022-12-10T00:34:36;-0.20;99.90
55642;DHT22;41509;53.108;6.100;2022-12-10T00:37:02;-0.20;99.90
55642;DHT22;41509;53.108;6.100;2022-12-10T00:39:27;-0.20;99.90
55642;DHT22;41509;53.108;6.100;2022-12-10T00:41:54;-0.30;99.90
55642;DHT22;41509;53.108;6.100;2022-12-10T00:44:20;-0.20;99.90
55642;DHT22;41509;53.108;6.100;2022-12-10T00:46:46;-0.10;99.90
55642;DHT22;41509;53.108;6.100;2022-12-10T00:49:11;-0.10;99.90
55642;DHT22;41509;53.108;6.100;2022-12-10T00:51:38;-0.20;99.90
55642;DHT22;41509;53.108;6.100;2022-12-10T00:54:04;-0.10;99.90
55642;DHT22;41509;53.108;6.100;2022-12-10T00:56:31;-0.10;99.90
55642;DHT22;41509;53.108;6.100;2022-12-10T00:58:58;-0.10;99.90
55642;DHT22;41509;53.108;6.100;2022-12-10T01:01:28;-0.10;99.90
55642;DHT22;41509;53.108;6.100;2022-12-10T01:03:59;-0.10;99.90
55642;DHT22;41509;53.108;6.100;2022-12-10T01:06:34;0.00;99.90
55642;DHT22;41509;53.108;6.100;2022-12-10T01:09:03;0.00;99.90
55642;DHT22;41509;53.108;6.100;2022-12-10T01:11:32;0.00;99.90
55642;DHT22;41509;53.108;6.100;2022-12-10T01:13:59;0.00;99.90
55642;DHT22;41509;53.108;6.100;2022-12-10T01:16:25;0.00;99.90
55642;DHT22;41509;53.108;6.100;2022-12-10T01:18:58;0.00;99.90
55642;DHT22;41509;53.108;6.100;2022-12-10T01:21:26;0.00;99.90
55642;DHT22;41509;53.108;6.100;2022-12-10T01:23:53;0.00;99.90
55642;DHT22;41509;53.108;6.100;2022-12-10T01:26:21;0.00;99.90
55642;DHT22;41509;53.108;6.100;2022-12-10T01:28:48;0.00;99.90
55642;DHT22;41509;53.108;6.100;2022-12-10T01:31:19;0.00;99.90
55642;DHT22;41509;53.108;6.100;2022-12-10T01:33:46;0.00;99.90
55642;DHT22;41509;53.108;6.100;2022-12-10T01:36:18;0.10;99.90
55642;DHT22;41509;53.108;6.100;2022-12-10T01:38:45;0.00;99.90
55642;DHT22;41509;53.108;6.100;2022-12-10T01:41:17;0.00;99.90
55642;DHT22;41509;53.108;6.100;2022-12-10T01:44:53;0.10;99.90
55642;DHT22;41509;53.108;6.100;2022-12-10T01:46:59;0.10;99.90
55642;DHT22;41509;53.108;6.100;2022-12-10T01:49:35;0.10;99.90
55642;DHT22;41509;53.108;6.100;2022-12-10T01:52:01;0.10;99.90
55642;DHT22;41509;53.108;6.100;2022-12-10T01:54:47;0.10;99.90
55642;DHT22;41509;53.108;6.100;2022-12-10T01:59:46;0.10;99.90
55642;DHT22;41509;53.108;6.100;2022-12-10T02:05:22;0.10;99.90
55642;DHT22;41509;53.108;6.100;2022-12-10T02:16:12;-0.10;99.90
55642;DHT22;41509;53.108;6.100;2022-12-10T02:18:47;-0.20;99.90
55642;DHT22;41509;53.108;6.100;2022-12-10T02:21:21;-0.20;99.90
55642;DHT22;41509;53.108;6.100;2022-12-10T02:24:14;-0.30;99.90
55642;DHT22;41509;53.108;6.100;2022-12-10T02:26:49;-0.30;99.90
55642;DHT22;41509;53.108;6.100;2022-12-10T02:29:23;-0.30;99.90
55642;DHT22;41509;53.108;6.100;2022-12-10T02:32:12;-0.30;99.90
55642;DHT22;41509;53.108;6.100;2022-12-10T02:34:49;-0.40;99.90
55642;DHT22;41509;53.108;6.100;2022-12-10T02:37:35;-0.40;99.90
55642;DHT22;41509;53.108;6.100;2022-12-10T02:40:07;-0.40;99.90
55642;DHT22;41509;53.108;6.100;2022-12-10T02:42:38;-0.40;99.90
55642;DHT22;41509;53.108;6.100;2022-12-10T02:45:04;-0.50;99.90
55642;DHT22;41509;53.108;6.100;2022-12-10T02:47:30;-0.50;99.90
55642;DHT22;41509;53.108;6.100;2022-12-10T02:49:58;-0.50;99.90
55642;DHT22;41509;53.108;6.100;2022-12-10T02:52:24;-0.60;99.90
55642;DHT22;41509;53.108;6.100;2022-12-10T02:54:50;-0.60;99.90
55642;DHT22;41509;53.108;6.100;2022-12-10T02:57:57;-0.70;99.90
55642;DHT22;41509;53.108;6.100;2022-12-10T03:00:25;-0.70;99.90
55642;DHT22;41509;53.108;6.100;2022-12-10T03:10:58;-0.70;99.90
55642;DHT22;41509;53.108;6.100;2022-12-10T03:16:36;-0.60;99.90
55642;DHT22;41509;53.108;6.100;2022-12-10T03:19:06;-0.60;99.90
55642;DHT22;41509;53.108;6.100;2022-12-10T03:21:34;-0.60;99.90
55642;DHT22;41509;53.108;6.100;2022-12-10T03:24:02;-0.60;99.90
55642;DHT22;41509;53.108;6.100;2022-12-10T03:26:28;-0.60;99.90
55642;DHT22;41509;53.108;6.100;2022-12-10T03:29:00;-0.50;99.90
55642;DHT22;41509;53.108;6.100;2022-12-10T03:31:28;-0.50;99.90
55642;DHT22;41509;53.108;6.100;2022-12-10T03:33:54;-0.50;99.90
55642;DHT22;41509;53.108;6.100;2022-12-10T03:36:20;-0.50;99.90
55642;DHT22;41509;53.108;6.100;2022-12-10T03:38:46;-0.50;99.90
55642;DHT22;41509;53.108;6.100;2022-12-10T03:41:12;-0.50;99.90
55642;DHT22;41509;53.108;6.100;2022-12-10T03:44:11;-0.50;99.90
55642;DHT22;41509;53.108;6.100;2022-12-10T03:46:37;-0.50;99.90
55642;DHT22;41509;53.108;6.100;2022-12-10T03:49:03;-0.50;99.90
55642;DHT22;41509;53.108;6.100;2022-12-10T03:51:28;-0.50;99.90
55642;DHT22;41509;53.108;6.100;2022-12-10T03:53:54;-0.40;99.90
55642;DHT22;41509;53.108;6.100;2022-12-10T03:56:21;-0.40;99.90
55642;DHT22;41509;53.108;6.100;2022-12-10T03:58:46;-0.40;99.90
55642;DHT22;41509;53.108;6.100;2022-12-10T04:01:12;-0.50;99.90
55642;DHT22;41509;53.108;6.100;2022-12-10T04:03:40;-0.40;99.90
55642;DHT22;41509;53.108;6.100;2022-12-10T04:06:12;-0.40;99.90
55642;DHT22;41509;53.108;6.100;2022-12-10T04:08:38;-0.40;99.90
55642;DHT22;41509;53.108;6.100;2022-12-10T04:11:08;-0.40;99.90
55642;DHT22;41509;53.108;6.100;2022-12-10T04:13:35;-0.40;99.90
55642;DHT22;41509;53.108;6.100;2022-12-10T04:16:21;-0.40;99.90
55642;DHT22;41509;53.108;6.100;2022-12-10T04:18:53;-0.40;99.90
55642;DHT22;41509;53.108;6.100;2022-12-10T04:21:19;-0.30;99.90
55642;DHT22;41509;53.108;6.100;2022-12-10T04:24:04;-0.30;99.90
55642;DHT22;41509;53.108;6.100;2022-12-10T04:26:48;-0.40;99.90
55642;DHT22;41509;53.108;6.100;2022-12-10T04:29:21;-0.30;99.90
55642;DHT22;41509;53.108;6.100;2022-12-10T04:31:47;-0.30;99.90
55642;DHT22;41509;53.108;6.100;2022-12-10T04:34:13;-0.20;99.90
55642;DHT22;41509;53.108;6.100;2022-12-10T04:36:38;-0.30;99.90
55642;DHT22;41509;53.108;6.100;2022-12-10T04:39:04;-0.20;99.90
55642;DHT22;41509;53.108;6.100;2022-12-10T04:41:30;-0.20;99.90
55642;DHT22;41509;53.108;6.100;2022-12-10T04:43:55;-0.20;99.90
55642;DHT22;41509;53.108;6.100;2022-12-10T04:46:21;-0.20;99.90
55642;DHT22;41509;53.108;6.100;2022-12-10T04:48:46;-0.20;99.90
55642;DHT22;41509;53.108;6.100;2022-12-10T04:51:12;-0.20;99.90
55642;DHT22;41509;53.108;6.100;2022-12-10T04:53:40;-0.10;99.90
55642;DHT22;41509;53.108;6.100;2022-12-10T04:58:39;-0.10;99.90
55642;DHT22;41509;53.108;6.100;2022-12-10T05:01:07;-0.10;99.90
55642;DHT22;41509;53.108;6.100;2022-12-10T05:03:34;-0.10;99.90
55642;DHT22;41509;53.108;6.100;2022-12-10T05:06:04;-0.10;99.90
55642;DHT22;41509;53.108;6.100;2022-12-10T05:08:30;-0.10;99.90
55642;DHT22;41509;53.108;6.100;2022-12-10T05:11:00;0.00;99.90
55642;DHT22;41509;53.108;6.100;2022-12-10T05:13:27;0.00;99.90
55642;DHT22;41509;53.108;6.100;2022-12-10T05:15:53;0.00;99.90
55642;DHT22;41509;53.108;6.100;2022-12-10T05:18:18;0.00;99.90
55642;DHT22;41509;53.108;6.100;2022-12-10T05:20:44;0.00;99.90
55642;DHT22;41509;53.108;6.100;2022-12-10T05:23:10;0.00;99.90
55642;DHT22;41509;53.108;6.100;2022-12-10T05:28:43;0.00;99.90
55642;DHT22;41509;53.108;6.100;2022-12-10T05:31:21;0.10;99.90
55642;DHT22;41509;53.108;6.100;2022-12-10T05:33:47;0.00;99.90
55642;DHT22;41509;53.108;6.100;2022-12-10T05:36:15;0.10;99.90
55642;DHT22;41509;53.108;6.100;2022-12-10T05:38:41;0.20;99.90
55642;DHT22;41509;53.108;6.100;2022-12-10T05:41:13;0.10;99.90
55642;DHT22;41509;53.108;6.100;2022-12-10T05:43:40;0.10;99.90
55642;DHT22;41509;53.108;6.100;2022-12-10T05:46:08;0.10;99.90
55642;DHT22;41509;53.108;6.100;2022-12-10T05:48:35;0.10;99.90
55642;DHT22;41509;53.108;6.100;2022-12-10T05:51:05;0.20;99.90
55642;DHT22;41509;53.108;6.100;2022-12-10T05:53:30;0.20;99.90
55642;DHT22;41509;53.108;6.100;2022-12-10T05:56:08;0.10;99.90
55642;DHT22;41509;53.108;6.100;2022-12-10T05:58:35;0.20;99.90
55642;DHT22;41509;53.108;6.100;2022-12-10T06:01:06;0.20;99.90
55642;DHT22;41509;53.108;6.100;2022-12-10T06:03:34;0.20;99.90
55642;DHT22;41509;53.108;6.100;2022-12-10T06:06:00;0.20;99.90
55642;DHT22;41509;53.108;6.100;2022-12-10T06:08:25;0.20;99.90
55642;DHT22;41509;53.108;6.100;2022-12-10T06:10:51;0.30;99.90
55642;DHT22;41509;53.108;6.100;2022-12-10T06:13:17;0.30;99.90
55642;DHT22;41509;53.108;6.100;2022-12-10T06:15:42;0.30;99.90
55642;DHT22;41509;53.108;6.100;2022-12-10T06:18:08;0.30;99.90
55642;DHT22;41509;53.108;6.100;2022-12-10T06:20:36;0.30;99.90
55642;DHT22;41509;53.108;6.100;2022-12-10T06:23:02;0.30;99.90
55642;DHT22;41509;53.108;6.100;2022-12-10T06:25:28;0.30;99.90
55642;DHT22;41509;53.108;6.100;2022-12-10T06:27:53;0.30;99.90
55642;DHT22;41509;53.108;6.100;2022-12-10T06:30:19;0.30;99.90
55642;DHT22;41509;53.108;6.100;2022-12-10T06:32:44;0.30;99.90
55642;DHT22;41509;53.108;6.100;2022-12-10T06:35:10;0.40;99.90
55642;DHT22;41509;53.108;6.100;2022-12-10T06:37:37;0.40;99.90
55642;DHT22;41509;53.108;6.100;2022-12-10T06:40:03;0.40;99.90
55642;DHT22;41509;53.108;6.100;2022-12-10T06:42:29;0.40;99.90
55642;DHT22;41509;53.108;6.100;2022-12-10T06:44:56;0.40;99.90
55642;DHT22;41509;53.108;6.100;2022-12-10T06:47:22;0.30;99.90
55642;DHT22;41509;53.108;6.100;2022-12-10T06:49:47;0.40;99.90
55642;DHT22;41509;53.108;6.100;2022-12-10T06:52:13;0.40;99.90
55642;DHT22;41509;53.108;6.100;2022-12-10T06:54:39;0.40;99.90
55642;DHT22;41509;53.108;6.100;2022-12-10T06:57:04;0.40;99.90
55642;DHT22;41509;53.108;6.100;2022-12-10T06:59:30;0.40;99.90
55642;DHT22;41509;53.108;6.100;2022-12-10T07:01:56;0.40;99.90
55642;DHT22;41509;53.108;6.100;2022-12-10T07:04:21;0.40;99.90
55642;DHT22;41509;53.108;6.100;2022-12-10T07:06:47;0.30;99.90
55642;DHT22;41509;53.108;6.100;2022-12-10T07:09:12;0.30;99.90
55642;DHT22;41509;53.108;6.100;2022-12-10T07:11:39;0.30;99.90
55642;DHT22;41509;53.108;6.100;2022-12-10T07:14:04;0.30;99.90
55642;DHT22;41509;53.108;6.100;2022-12-10T07:16:32;0.30;99.90
55642;DHT22;41509;53.108;6.100;2022-12-10T07:18:59;0.30;99.90
55642;DHT22;41509;53.108;6.100;2022-12-10T07:21:35;0.30;99.90
55642;DHT22;41509;53.108;6.100;2022-12-10T07:24:07;0.20;99.90
55642;DHT22;41509;53.108;6.100;2022-12-10T07:26:35;0.30;99.90
55642;DHT22;41509;53.108;6.100;2022-12-10T07:29:03;0.20;99.90
55642;DHT22;41509;53.108;6.100;2022-12-10T07:31:29;0.30;99.90
55642;DHT22;41509;53.108;6.100;2022-12-10T07:33:57;0.20;99.90
55642;DHT22;41509;53.108;6.100;2022-12-10T07:36:24;0.20;99.90
55642;DHT22;41509;53.108;6.100;2022-12-10T07:38:50;0.20;99.90
55642;DHT22;41509;53.108;6.100;2022-12-10T07:41:16;0.20;99.90
55642;DHT22;41509;53.108;6.100;2022-12-10T07:43:44;0.20;99.90
55642;DHT22;41509;53.108;6.100;2022-12-10T07:46:12;0.20;99.90
55642;DHT22;41509;53.108;6.100;2022-12-10T07:48:40;0.20;99.90
55642;DHT22;41509;53.108;6.100;2022-12-10T07:51:06;0.20;99.90
55642;DHT22;41509;53.108;6.100;2022-12-10T07:53:32;0.20;99.90
55642;DHT22;41509;53.108;6.100;2022-12-10T07:55:58;0.20;99.90
55642;DHT22;41509;53.108;6.100;2022-12-10T07:58:24;0.20;99.90
55642;DHT22;41509;53.108;6.100;2022-12-10T08:00:49;0.20;99.90
55642;DHT22;41509;53.108;6.100;2022-12-10T08:03:15;0.20;99.90
55642;DHT22;41509;53.108;6.100;2022-12-10T08:05:41;0.20;99.90
55642;DHT22;41509;53.108;6.100;2022-12-10T08:08:07;0.20;99.90
55642;DHT22;41509;53.108;6.100;2022-12-10T08:10:36;0.20;99.90
55642;DHT22;41509;53.108;6.100;2022-12-10T08:13:03;0.20;99.90
55642;DHT22;41509;53.108;6.100;2022-12-10T08:15:29;0.20;99.90
55642;DHT22;41509;53.108;6.100;2022-12-10T08:17:55;0.30;99.90
55642;DHT22;41509;53.108;6.100;2022-12-10T08:20:22;0.20;99.90
55642;DHT22;41509;53.108;6.100;2022-12-10T08:22:48;0.30;99.90
55642;DHT22;41509;53.108;6.100;2022-12-10T08:25:14;0.20;99.90
55642;DHT22;41509;53.108;6.100;2022-12-10T08:27:39;0.20;99.90
55642;DHT22;41509;53.108;6.100;2022-12-10T08:30:05;0.30;99.90
55642;DHT22;41509;53.108;6.100;2022-12-10T08:32:31;0.30;99.90
55642;DHT22;41509;53.108;6.100;2022-12-10T08:34:57;0.20;99.90
55642;DHT22;41509;53.108;6.100;2022-12-10T08:37:22;0.30;99.90
55642;DHT22;41509;53.108;6.100;2022-12-10T08:39:48;0.20;99.90
55642;DHT22;41509;53.108;6.100;2022-12-10T08:42:14;0.30;99.90
55642;DHT22;41509;53.108;6.100;2022-12-10T08:44:40;0.20;99.90
55642;DHT22;41509;53.108;6.100;2022-12-10T08:47:05;0.30;99.90
55642;DHT22;41509;53.108;6.100;2022-12-10T08:49:31;0.30;99.90
55642;DHT22;41509;53.108;6.100;2022-12-10T08:51:57;0.30;99.90
55642;DHT22;41509;53.108;6.100;2022-12-10T08:54:22;0.30;99.90
55642;DHT22;41509;53.108;6.100;2022-12-10T08:56:48;0.30;99.90
55642;DHT22;41509;53.108;6.100;2022-12-10T08:59:14;0.30;99.90
55642;DHT22;41509;53.108;6.100;2022-12-10T09:01:39;0.30;99.90
55642;DHT22;41509;53.108;6.100;2022-12-10T09:04:05;0.30;99.90
55642;DHT22;41509;53.108;6.100;2022-12-10T09:06:31;0.30;99.90
55642;DHT22;41509;53.108;6.100;2022-12-10T09:08:56;0.30;99.90
55642;DHT22;41509;53.108;6.100;2022-12-10T09:11:28;0.30;99.90
55642;DHT22;41509;53.108;6.100;2022-12-10T09:13:54;0.30;99.90
55642;DHT22;41509;53.108;6.100;2022-12-10T09:16:20;0.20;99.90
55642;DHT22;41509;53.108;6.100;2022-12-10T09:18:46;0.30;99.90
55642;DHT22;41509;53.108;6.100;2022-12-10T09:21:16;0.20;99.90
55642;DHT22;41509;53.108;6.100;2022-12-10T09:23:43;0.20;99.90
55642;DHT22;41509;53.108;6.100;2022-12-10T09:26:12;0.20;99.90
55642;DHT22;41509;53.108;6.100;2022-12-10T09:28:39;0.20;99.90
55642;DHT22;41509;53.108;6.100;2022-12-10T09:31:05;0.20;99.90
55642;DHT22;41509;53.108;6.100;2022-12-10T09:33:32;0.30;99.90
55642;DHT22;41509;53.108;6.100;2022-12-10T09:35:58;0.30;99.90
55642;DHT22;41509;53.108;6.100;2022-12-10T09:38:24;0.20;99.90
55642;DHT22;41509;53.108;6.100;2022-12-10T09:41:00;0.20;99.90
55642;DHT22;41509;53.108;6.100;2022-12-10T09:43:51;0.30;99.90
55642;DHT22;41509;53.108;6.100;2022-12-10T09:49:17;0.30;99.90
55642;DHT22;41509;53.108;6.100;2022-12-10T09:51:45;0.30;99.90
55642;DHT22;41509;53.108;6.100;2022-12-10T09:54:31;0.30;99.90
55642;DHT22;41509;53.108;6.100;2022-12-10T09:56:58;0.30;99.90
55642;DHT22;41509;53.108;6.100;2022-12-10T09:59:39;0.30;99.90
55642;DHT22;41509;53.108;6.100;2022-12-10T10:04:48;0.30;99.90
55642;DHT22;41509;53.108;6.100;2022-12-10T10:07:28;0.30;99.90
55642;DHT22;41509;53.108;6.100;2022-12-10T10:10:06;0.40;99.90
55642;DHT22;41509;53.108;6.100;2022-12-10T10:12:33;0.30;99.90
55642;DHT22;41509;53.108;6.100;2022-12-10T10:15:13;0.30;99.90
55642;DHT22;41509;53.108;6.100;2022-12-10T10:17:39;0.40;99.90
55642;DHT22;41509;53.108;6.100;2022-12-10T10:20:11;0.50;99.90
55642;DHT22;41509;53.108;6.100;2022-12-10T10:22:38;0.40;99.90
55642;DHT22;41509;53.108;6.100;2022-12-10T10:25:07;0.40;99.90
55642;DHT22;41509;53.108;6.100;2022-12-10T10:27:38;0.50;99.90
55642;DHT22;41509;53.108;6.100;2022-12-10T10:30:06;0.50;99.90
55642;DHT22;41509;53.108;6.100;2022-12-10T10:35:01;0.50;99.90
55642;DHT22;41509;53.108;6.100;2022-12-10T10:39:59;0.50;99.90
55642;DHT22;41509;53.108;6.100;2022-12-10T10:42:38;0.50;99.90
55642;DHT22;41509;53.108;6.100;2022-12-10T10:53:50;0.40;99.90
55642;DHT22;41509;53.108;6.100;2022-12-10T10:56:21;0.40;99.90
55642;DHT22;41509;53.108;6.100;2022-12-10T11:02:26;0.40;99.90
55642;DHT22;41509;53.108;6.100;2022-12-10T11:09:13;0.40;99.90
55642;DHT22;41509;53.108;6.100;2022-12-10T11:11:41;0.40;99.90
55642;DHT22;41509;53.108;6.100;2022-12-10T11:14:15;0.40;99.90
55642;DHT22;41509;53.108;6.100;2022-12-10T11:16:41;0.40;99.90
55642;DHT22;41509;53.108;6.100;2022-12-10T11:19:21;0.40;99.90
55642;DHT22;41509;53.108;6.100;2022-12-10T11:21:47;0.40;99.90
55642;DHT22;41509;53.108;6.100;2022-12-10T11:24:17;0.50;99.90
55642;DHT22;41509;53.108;6.100;2022-12-10T11:26:55;0.40;99.90
55642;DHT22;41509;53.108;6.100;2022-12-10T11:43:16;0.40;99.90
55642;DHT22;41509;53.108;6.100;2022-12-10T11:49:19;0.50;99.90
55642;DHT22;41509;53.108;6.100;2022-12-10T12:02:37;0.50;99.90
55642;DHT22;41509;53.108;6.100;2022-12-10T12:10:57;0.60;99.90
55642;DHT22;41509;53.108;6.100;2022-12-10T12:13:33;0.60;99.90
55642;DHT22;41509;53.108;6.100;2022-12-10T12:16:06;0.60;99.90
55642;DHT22;41509;53.108;6.100;2022-12-10T12:18:43;0.60;99.90
55642;DHT22;41509;53.108;6.100;2022-12-10T12:21:14;0.60;99.90
55642;DHT22;41509;53.108;6.100;2022-12-10T12:26:38;0.70;99.90
55642;DHT22;41509;53.108;6.100;2022-12-10T12:29:21;0.70;99.90
55642;DHT22;41509;53.108;6.100;2022-12-10T12:31:59;0.70;99.90
55642;DHT22;41509;53.108;6.100;2022-12-10T12:37:16;0.80;99.90
55642;DHT22;41509;53.108;6.100;2022-12-10T12:39:54;0.70;99.90
55642;DHT22;41509;53.108;6.100;2022-12-10T12:45:20;0.70;99.90
55642;DHT22;41509;53.108;6.100;2022-12-10T12:53:01;0.70;99.90
55642;DHT22;41509;53.108;6.100;2022-12-10T12:55:43;0.80;99.90
55642;DHT22;41509;53.108;6.100;2022-12-10T13:00:41;0.70;99.90
55642;DHT22;41509;53.108;6.100;2022-12-10T13:03:33;0.70;99.90
55642;DHT22;41509;53.108;6.100;2022-12-10T13:06:33;0.70;99.90
55642;DHT22;41509;53.108;6.100;2022-12-10T13:11:37;0.70;99.90
55642;DHT22;41509;53.108;6.100;2022-12-10T13:22:05;0.70;99.90
55642;DHT22;41509;53.108;6.100;2022-12-10T13:32:20;0.80;99.90
55642;DHT22;41509;53.108;6.100;2022-12-10T13:34:46;0.80;99.90
55642;DHT22;41509;53.108;6.100;2022-12-10T13:39:54;0.80;99.90
55642;DHT22;41509;53.108;6.100;2022-12-10T13:42:31;0.80;99.90
55642;DHT22;41509;53.108;6.100;2022-12-10T13:47:54;0.80;99.90
55642;DHT22;41509;53.108;6.100;2022-12-10T13:50:41;0.80;99.90
55642;DHT22;41509;53.108;6.100;2022-12-10T14:06:37;0.80;99.90
55642;DHT22;41509;53.108;6.100;2022-12-10T14:12:10;0.90;99.90
55642;DHT22;41509;53.108;6.100;2022-12-10T14:14:50;0.90;99.90
55642;DHT22;41509;53.108;6.100;2022-12-10T14:17:19;0.90;99.90
55642;DHT22;41509;53.108;6.100;2022-12-10T14:19:49;0.90;99.90
55642;DHT22;41509;53.108;6.100;2022-12-10T14:22:29;0.90;99.90
55642;DHT22;41509;53.108;6.100;2022-12-10T14:25:00;0.90;99.90
55642;DHT22;41509;53.108;6.100;2022-12-10T14:27:29;0.90;99.90
55642;DHT22;41509;53.108;6.100;2022-12-10T14:30:02;0.90;99.90
55642;DHT22;41509;53.108;6.100;2022-12-10T14:32:38;0.90;99.90
55642;DHT22;41509;53.108;6.100;2022-12-10T14:35:07;0.90;99.90
55642;DHT22;41509;53.108;6.100;2022-12-10T14:37:40;0.90;99.90
55642;DHT22;41509;53.108;6.100;2022-12-10T14:40:07;0.90;99.90
55642;DHT22;41509;53.108;6.100;2022-12-10T14:42:33;0.90;99.90
55642;DHT22;41509;53.108;6.100;2022-12-10T14:45:02;0.90;99.90
55642;DHT22;41509;53.108;6.100;2022-12-10T14:47:38;0.90;99.90
55642;DHT22;41509;53.108;6.100;2022-12-10T14:50:10;0.90;99.90
55642;DHT22;41509;53.108;6.100;2022-12-10T14:52:49;0.90;99.90
55642;DHT22;41509;53.108;6.100;2022-12-10T14:55:19;0.90;99.90
55642;DHT22;41509;53.108;6.100;2022-12-10T14:57:51;0.90;99.90
55642;DHT22;41509;53.108;6.100;2022-12-10T15:00:20;0.90;99.90
55642;DHT22;41509;53.108;6.100;2022-12-10T15:02:58;0.90;99.90
55642;DHT22;41509;53.108;6.100;2022-12-10T15:05:30;0.90;99.90
55642;DHT22;41509;53.108;6.100;2022-12-10T15:08:04;0.90;99.90
55642;DHT22;41509;53.108;6.100;2022-12-10T15:10:43;0.90;99.90
55642;DHT22;41509;53.108;6.100;2022-12-10T15:13:22;0.90;99.90
55642;DHT22;41509;53.108;6.100;2022-12-10T15:15:50;1.00;99.90
55642;DHT22;41509;53.108;6.100;2022-12-10T15:18:31;0.90;99.90
55642;DHT22;41509;53.108;6.100;2022-12-10T15:21:15;0.90;99.90
55642;DHT22;41509;53.108;6.100;2022-12-10T15:23:44;0.90;99.90
55642;DHT22;41509;53.108;6.100;2022-12-10T15:28:46;0.90;99.90
55642;DHT22;41509;53.108;6.100;2022-12-10T15:39:11;0.80;99.90
55642;DHT22;41509;53.108;6.100;2022-12-10T15:42:01;0.80;99.90
55642;DHT22;41509;53.108;6.100;2022-12-10T15:44:39;0.80;99.90
55642;DHT22;41509;53.108;6.100;2022-12-10T15:47:22;0.80;99.90
55642;DHT22;41509;53.108;6.100;2022-12-10T15:49:51;0.80;99.90
55642;DHT22;41509;53.108;6.100;2022-12-10T15:52:19;0.80;99.90
55642;DHT22;41509;53.108;6.100;2022-12-10T15:54:47;0.80;99.90
55642;DHT22;41509;53.108;6.100;2022-12-10T15:57:24;0.80;99.90
55642;DHT22;41509;53.108;6.100;2022-12-10T15:59:52;0.70;99.90
55642;DHT22;41509;53.108;6.100;2022-12-10T16:02:39;0.80;99.90
55642;DHT22;41509;53.108;6.100;2022-12-10T16:05:18;0.80;99.90
55642;DHT22;41509;53.108;6.100;2022-12-10T16:07:45;0.80;99.90
55642;DHT22;41509;53.108;6.100;2022-12-10T16:10:14;0.90;99.90
55642;DHT22;41509;53.108;6.100;2022-12-10T16:12:40;0.80;99.90
55642;DHT22;41509;53.108;6.100;2022-12-10T16:15:11;0.80;99.90
55642;DHT22;41509;53.108;6.100;2022-12-10T16:17:42;0.80;99.90
55642;DHT22;41509;53.108;6.100;2022-12-10T16:22:47;0.70;99.90
55642;DHT22;41509;53.108;6.100;2022-12-10T16:25:13;0.80;99.90
55642;DHT22;41509;53.108;6.100;2022-12-10T16:27:39;0.70;99.90
55642;DHT22;41509;53.108;6.100;2022-12-10T16:30:28;0.60;99.90
55642;DHT22;41509;53.108;6.100;2022-12-10T16:32:56;0.60;99.90
55642;DHT22;41509;53.108;6.100;2022-12-10T16:35:21;0.60;99.90
55642;DHT22;41509;53.108;6.100;2022-12-10T16:37:48;0.60;99.90
55642;DHT22;41509;53.108;6.100;2022-12-10T16:40:17;0.60;99.90
55642;DHT22;41509;53.108;6.100;2022-12-10T16:42:43;0.60;99.90
55642;DHT22;41509;53.108;6.100;2022-12-10T16:47:38;0.60;99.90
55642;DHT22;41509;53.108;6.100;2022-12-10T16:50:04;0.70;99.90
55642;DHT22;41509;53.108;6.100;2022-12-10T16:52:30;0.60;99.90
55642;DHT22;41509;53.108;6.100;2022-12-10T16:54:56;0.50;99.90
55642;DHT22;41509;53.108;6.100;2022-12-10T17:08:44;0.50;99.90
55642;DHT22;41509;53.108;6.100;2022-12-10T17:11:26;0.50;99.90
55642;DHT22;41509;53.108;6.100;2022-12-10T17:14:36;0.50;99.90
55642;DHT22;41509;53.108;6.100;2022-12-10T17:17:03;0.50;99.90
55642;DHT22;41509;53.108;6.100;2022-12-10T17:19:34;0.50;99.90
55642;DHT22;41509;53.108;6.100;2022-12-10T17:22:04;0.50;99.90
55642;DHT22;41509;53.108;6.100;2022-12-10T17:24:33;0.50;99.90
55642;DHT22;41509;53.108;6.100;2022-12-10T17:27:04;0.50;99.90
55642;DHT22;41509;53.108;6.100;2022-12-10T17:29:41;0.50;99.90
55642;DHT22;41509;53.108;6.100;2022-12-10T17:32:13;0.50;99.90
55642;DHT22;41509;53.108;6.100;2022-12-10T17:34:39;0.50;99.90
55642;DHT22;41509;53.108;6.100;2022-12-10T17:37:11;0.40;99.90
55642;DHT22;41509;53.108;6.100;2022-12-10T17:39:37;0.50;99.90
55642;DHT22;41509;53.108;6.100;2022-12-10T17:42:03;0.40;99.90
55642;DHT22;41509;53.108;6.100;2022-12-10T17:44:29;0.50;99.90
55642;DHT22;41509;53.108;6.100;2022-12-10T17:46:55;0.40;99.90
55642;DHT22;41509;53.108;6.100;2022-12-10T17:49:21;0.40;99.90
55642;DHT22;41509;53.108;6.100;2022-12-10T17:51:46;0.40;99.90
55642;DHT22;41509;53.108;6.100;2022-12-10T17:54:13;0.40;99.90
55642;DHT22;41509;53.108;6.100;2022-12-10T17:56:39;0.40;99.90
55642;DHT22;41509;53.108;6.100;2022-12-10T17:59:06;0.40;99.90
55642;DHT22;41509;53.108;6.100;2022-12-10T18:01:32;0.40;99.90
55642;DHT22;41509;53.108;6.100;2022-12-10T18:03:59;0.40;99.90
55642;DHT22;41509;53.108;6.100;2022-12-10T18:06:28;0.40;99.90
55642;DHT22;41509;53.108;6.100;2022-12-10T18:08:57;0.40;99.90
55642;DHT22;41509;53.108;6.100;2022-12-10T18:11:26;0.30;99.90
55642;DHT22;41509;53.108;6.100;2022-12-10T18:13:53;0.40;99.90
55642;DHT22;41509;53.108;6.100;2022-12-10T18:16:25;0.40;99.90
55642;DHT22;41509;53.108;6.100;2022-12-10T18:18:53;0.40;99.90
55642;DHT22;41509;53.108;6.100;2022-12-10T18:21:20;0.30;99.90
55642;DHT22;41509;53.108;6.100;2022-12-10T18:23:46;0.40;99.90
55642;DHT22;41509;53.108;6.100;2022-12-10T18:26:18;0.30;99.90
55642;DHT22;41509;53.108;6.100;2022-12-10T18:28:49;0.30;99.90
55642;DHT22;41509;53.108;6.100;2022-12-10T18:31:42;0.30;99.90
55642;DHT22;41509;53.108;6.100;2022-12-10T18:34:10;0.20;99.90
55642;DHT22;41509;53.108;6.100;2022-12-10T18:36:39;0.20;99.90
55642;DHT22;41509;53.108;6.100;2022-12-10T18:39:24;0.20;99.90
55642;DHT22;41509;53.108;6.100;2022-12-10T18:41:50;0.20;99.90
55642;DHT22;41509;53.108;6.100;2022-12-10T18:44:18;0.20;99.90
55642;DHT22;41509;53.108;6.100;2022-12-10T18:46:46;0.20;99.90
55642;DHT22;41509;53.108;6.100;2022-12-10T18:49:14;0.20;99.90
55642;DHT22;41509;53.108;6.100;2022-12-10T18:51:40;0.20;99.90
55642;DHT22;41509;53.108;6.100;2022-12-10T18:54:05;0.20;99.90